Hauptseite
METAR-TAF:

METAR-TAF

Flughäfen :

Flughafen Kiel

Kiel, Deutschland

Breite: 54-23N, Länge: 010-10E, Höhe: 31 m

Beobachtung

Neuester Wetterbericht von vor 28 Minuten, um 01:50 UTC
Wind 5 kt aus West
Temperatur 3°C
Luftfeuchtigkeit 87%
Luftdruck 1015 hPa
Sichtweite 10 km oder mehr

METAR: EDHK 080150Z AUTO 26005KT 9999 // FEW025/// 03/01 Q1015

Zeit: 04:18 (02:18 UTC)

Prognose

Neuester Wetterbericht von vor 12 Stunden und 18 Minuten, um 14:00 UTC
Gültige Prognose vom 07 um 15 UTC bis 07 um 19 UTC
Wind 20 kt aus West, Böen bis zu 30 kt
Sichtweite 10 km oder mehr
Leicht bewölkt in der Höhe von 3000 ft
Übergehend zu
vom 07 um 17 UTC bis 07 um 19 UTC
Wind 10 kt aus West

TAF: EDHK 071400Z 0715/0719 28020G30KT 9999 FEW030 BECMG 0717/0719 26010KT

Wetterbeobachtungen und Prognosen von mehr als 4000 Flughäfen (METAR und TAF Bericht).

Die verfügbaren Stationen werden durch gelbe und rote Markierungen auf der Karte dargestellt.

Führen Sie die Maus auf sie, um den Namen der Station zu sehen.

Darauf klicken, um die Beobachtung von Wetterbeobachtungen und Prognosen zu sehen.

Um die Karte zu ändern : klicken Sie auf den grünen Tasten mit einem schwarzen Kreuz Zum Vergrößern, auf den grünen Button mit einem Gedankenstrich zu verkleinern, oder auf die grünen Pfeile für benachbarte Karten.


METAR-TAF: